Spirit Of Vi — CFL2070 — position and weather

sailwx.info

Track history (hours):
 
Tides and Currents Weather Stations Pressure Air Temp Water Temp Dewpoint Dewpoint Depression Visibility Wind Speed Wind Dir Waves Ship Positions

Spirit Of Vi

Last reported at 2019-Sep-21 10:27 UTC. Time now 2019-Sep-21 10:55 UTC.
Position N 48°41' W 123°25'.

Length 167 m; draft 4.8 m.

Type: Passenger vessel. MMSI: 316001269.

Date/timePositionNaut miles runAvg speedWind from/ knotsBaromVisibWave heightAir tempDewpointWater temp
2019-Sep-21 10:27N 48°41' W 123°25'0 0.0
2019-Sep-21 09:57N 48°41' W 123°25'0 0.0
2019-Sep-21 09:30N 48°41' W 123°25'0 0.0
2019-Sep-21 08:57N 48°41' W 123°25'0 0.0
2019-Sep-21 08:30N 48°41' W 123°25'0 0.0
2019-Sep-21 08:00N 48°41' W 123°25'0 0.0
2019-Sep-21 07:30N 48°41' W 123°25'0 0.0
2019-Sep-21 07:00N 48°41' W 123°25'0 0.0
2019-Sep-21 06:30N 48°41' W 123°25'0 0.0
2019-Sep-21 06:00N 48°41' W 123°25'0 0.0
2019-Sep-21 05:30N 48°41' W 123°25'612.6
2019-Sep-21 05:00N 48°47' W 123°21'815.6
2019-Sep-21 04:31N 48°54' W 123°17'816.8
2019-Sep-21 04:00N 49°00' W 123°08'0 0.3
2019-Sep-21 03:30N 49°00' W 123°08'815.9
2019-Sep-21 03:01N 48°54' W 123°16'713.2
2019-Sep-21 02:30N 48°48' W 123°20'714.5
2019-Sep-21 02:01N 48°42' W 123°25'0 0.3
2019-Sep-21 01:31N 48°41' W 123°25'815.6
2019-Sep-21 01:00N 48°49' W 123°21'713.8
2019-Sep-21 00:30N 48°55' W 123°16'815.3
2019-Sep-21 00:01N 49°00' W 123°08'0 0.1
2019-Sep-20 23:30N 49°00' W 123°08'918.0
2019-Sep-20 23:00N 48°53' W 123°17'815.5
2019-Sep-20 22:30N 48°46' W 123°21'510.9
2019-Sep-20 22:00N 48°41' W 123°25'1 2.1
2019-Sep-20 21:30N 48°42' W 123°23'918.7
2019-Sep-20 21:00N 48°51' W 123°21'713.6
2019-Sep-20 20:30N 48°56' W 123°14'612.2
2019-Sep-20 20:00N 49°00' W 123°08'0 0.5
2019-Sep-20 19:30N 49°00' W 123°08'918.6
2019-Sep-20 19:00N 48°53' W 123°17'713.8
2019-Sep-20 18:30N 48°47' W 123°21'611.5
2019-Sep-20 18:00N 48°41' W 123°25'0 0.0
2019-Sep-20 17:31N 48°41' W 123°25'714.9
2019-Sep-20 17:00N 48°48' W 123°21'815.9
2019-Sep-20 16:30N 48°55' W 123°15'712.5
2019-Sep-20 15:58N 49°00' W 123°08'0 0.1
2019-Sep-20 15:30N 49°00' W 123°08'714.7
2019-Sep-20 15:01N 48°55' W 123°15'815.5
2019-Sep-20 14:30N 48°48' W 123°21'713.9
2019-Sep-20 14:00N 48°41' W 123°25'0 0.0
2019-Sep-20 13:30N 48°41' W 123°25'0 0.0
2019-Sep-20 12:58N 48°41' W 123°25'0 0.0
2019-Sep-20 12:28N 48°41' W 123°25'0 0.0
2019-Sep-20 11:58N 48°41' W 123°25'0 0.0
2019-Sep-20 11:28N 48°41' W 123°25'0 0.0
2019-Sep-20 10:58N 48°41' W 123°25'0 0.0
2019-Sep-20 10:28N 48°41' W 123°25'0 0.0
2019-Sep-20 09:58N 48°41' W 123°25'0 0.0
2019-Sep-20 09:28N 48°41' W 123°25'0 0.0
2019-Sep-20 08:55N 48°41' W 123°25'0 0.0
2019-Sep-20 08:28N 48°41' W 123°25'0 0.0
2019-Sep-20 07:58N 48°41' W 123°25'0 0.0
2019-Sep-20 07:28N 48°41' W 123°25'0 0.0
2019-Sep-20 06:58N 48°41' W 123°25'0 0.0
2019-Sep-20 06:28N 48°41' W 123°25'0 0.0
2019-Sep-20 05:58N 48°41' W 123°25'0 0.0
2019-Sep-20 05:28N 48°41' W 123°25'612.2
2019-Sep-20 05:00N 48°46' W 123°21'816.4
2019-Sep-20 04:30N 48°54' W 123°17'917.2
2019-Sep-20 04:01N 49°00' W 123°08'0 0.1
2019-Sep-20 03:30N 49°00' W 123°08'815.9
2019-Sep-20 03:00N 48°54' W 123°16'713.5
2019-Sep-20 02:30N 48°48' W 123°20'714.4
2019-Sep-20 02:00N 48°41' W 123°25'0 0.0
2019-Sep-20 01:31N 48°41' W 123°25'714.8
2019-Sep-20 01:00N 48°48' W 123°21'815.2
2019-Sep-20 00:30N 48°55' W 123°16'714.7
2019-Sep-20 00:00N 49°00' W 123°08'0 0.1
2019-Sep-19 23:30N 49°00' W 123°08'715.1
2019-Sep-19 23:00N 48°55' W 123°15'714.7
2019-Sep-19 22:30N 48°48' W 123°20'714.4
2019-Sep-19 22:01N 48°41' W 123°25'0 0.1
2019-Sep-19 21:31N 48°41' W 123°25'613.0
2019-Sep-19 21:00N 48°47' W 123°21'816.3
2019-Sep-19 20:30N 48°55' W 123°16'815.1
2019-Sep-19 20:00N 49°00' W 123°08'0 0.1
2019-Sep-19 19:30N 49°00' W 123°08'817.0
2019-Sep-19 19:00N 48°54' W 123°16'815.0
2019-Sep-19 18:30N 48°47' W 123°21'612.1
2019-Sep-19 18:00N 48°41' W 123°25'0 0.3
2019-Sep-19 17:30N 48°41' W 123°25'815.4
2019-Sep-19 17:01N 48°49' W 123°21'714.6
2019-Sep-19 16:30N 48°55' W 123°16'714.6
2019-Sep-19 16:00N 49°00' W 123°08'0 0.1
2019-Sep-19 15:31N 49°00' W 123°08'714.5
2019-Sep-19 15:01N 48°55' W 123°15'816.5
2019-Sep-19 14:30N 48°47' W 123°21'713.1
2019-Sep-19 14:00N 48°41' W 123°25'0 0.0
2019-Sep-19 13:30N 48°41' W 123°25'0 0.0
2019-Sep-19 13:00N 48°41' W 123°25'0 0.0
2019-Sep-19 12:30N 48°41' W 123°25'0 0.0
2019-Sep-19 11:59N 48°41' W 123°25'0 0.0
2019-Sep-19 11:29N 48°41' W 123°25'0 0.0
2019-Sep-19 10:59N 48°41' W 123°25'0 0.0
2019-Sep-19 10:29N 48°41' W 123°25'0 0.0
2019-Sep-19 09:59N 48°41' W 123°25'0 0.0
2019-Sep-19 09:29N 48°41' W 123°25'0 0.0
2019-Sep-19 08:59N 48°41' W 123°25'0 0.0
2019-Sep-19 08:29N 48°41' W 123°25'0 0.0
2019-Sep-19 07:59N 48°41' W 123°25'0 0.0
2019-Sep-19 07:29N 48°41' W 123°25'0 0.0
2019-Sep-19 06:59N 48°41' W 123°25'0 0.0
2019-Sep-19 06:29N 48°41' W 123°25'0 0.0
2019-Sep-19 05:59N 48°41' W 123°25'0 0.0
2019-Sep-19 05:29N 48°41' W 123°25'612.0
2019-Sep-19 05:00N 48°46' W 123°21'815.8
2019-Sep-19 04:30N 48°54' W 123°17'917.4
2019-Sep-19 04:01N 49°00' W 123°08'0 0.1
2019-Sep-19 03:30N 49°00' W 123°08'815.2
2019-Sep-19 03:00N 48°54' W 123°15'714.2
2019-Sep-19 02:30N 48°48' W 123°21'714.6
2019-Sep-19 02:00N 48°41' W 123°25'0 0.0
2019-Sep-19 01:31N 48°41' W 123°25'815.2
2019-Sep-19 01:01N 48°49' W 123°21'714.5
2019-Sep-19 00:31N 48°55' W 123°16'714.9
2019-Sep-19 00:00N 49°00' W 123°08'0 0.0
2019-Sep-18 23:30N 49°00' W 123°08'714.2
2019-Sep-18 23:01N 48°55' W 123°15'816.1
2019-Sep-18 22:31N 48°48' W 123°20'713.9
2019-Sep-18 22:00N 48°41' W 123°25'0 0.0
2019-Sep-18 21:30N 48°41' W 123°25'612.9
2019-Sep-18 21:00N 48°47' W 123°21'815.9
2019-Sep-18 20:30N 48°55' W 123°16'815.5
2019-Sep-18 20:00N 49°00' W 123°08'0 0.1
2019-Sep-18 19:30N 49°00' W 123°08'815.6
2019-Sep-18 19:00N 48°54' W 123°15'815.1
2019-Sep-18 18:30N 48°48' W 123°21'713.5
2019-Sep-18 18:01N 48°41' W 123°25'0 0.0
2019-Sep-18 17:31N 48°41' W 123°25'713.9
2019-Sep-18 17:00N 48°48' W 123°21'815.6
2019-Sep-18 16:30N 48°55' W 123°16'714.9
2019-Sep-18 16:00N 49°00' W 123°08'0 0.1
2019-Sep-18 15:30N 49°00' W 123°08'714.6
2019-Sep-18 15:00N 48°55' W 123°15'816.6
2019-Sep-18 14:30N 48°47' W 123°21'613.0
2019-Sep-18 14:00N 48°41' W 123°25'0 0.0
2019-Sep-18 13:30N 48°41' W 123°25'0 0.0
2019-Sep-18 13:00N 48°41' W 123°25'0 0.0
2019-Sep-18 12:30N 48°41' W 123°25'0 0.0
2019-Sep-18 12:00N 48°41' W 123°25'0 0.0
2019-Sep-18 11:30N 48°41' W 123°25'0 0.0
2019-Sep-18 11:00N 48°41' W 123°25'0 0.0
2019-Sep-18 10:30N 48°41' W 123°25'0 0.0
2019-Sep-18 10:00N 48°41' W 123°25'0 0.0
2019-Sep-18 09:30N 48°41' W 123°25'0 0.0
2019-Sep-18 09:00N 48°41' W 123°25'0 0.0
2019-Sep-18 08:30N 48°41' W 123°25'0 0.0
2019-Sep-18 08:00N 48°41' W 123°25'0 0.0
2019-Sep-18 07:30N 48°41' W 123°25'0 0.0
2019-Sep-18 07:00N 48°41' W 123°25'0 0.0
2019-Sep-18 06:30N 48°41' W 123°25'0 0.0
2019-Sep-18 06:00N 48°41' W 123°25'0 0.0
2019-Sep-18 05:30N 48°41' W 123°25'611.3
2019-Sep-18 05:00N 48°46' W 123°21'817.0
2019-Sep-18 04:30N 48°54' W 123°17'816.9
2019-Sep-18 04:01N 49°00' W 123°08'0 0.1
2019-Sep-18 03:31N 49°00' W 123°08'714.9
2019-Sep-18 03:00N 48°55' W 123°15'815.3
2019-Sep-18 02:30N 48°48' W 123°21'714.0
2019-Sep-18 02:01N 48°41' W 123°25'0 0.5
2019-Sep-18 01:30N 48°41' W 123°24'816.4
2019-Sep-18 01:00N 48°49' W 123°21'713.7
2019-Sep-18 00:30N 48°55' W 123°16'714.3
2019-Sep-18 00:00N 49°00' W 123°08'0 0.1
2019-Sep-17 23:30N 49°00' W 123°08'816.9
2019-Sep-17 23:00N 48°54' W 123°16'612.1
2019-Sep-17 22:30N 48°49' W 123°21'815.2
2019-Sep-17 22:00N 48°41' W 123°25'0 0.0
2019-Sep-17 21:30N 48°41' W 123°25'713.6
2019-Sep-17 21:00N 48°48' W 123°21'816.3
2019-Sep-17 20:30N 48°55' W 123°16'714.6
2019-Sep-17 20:00N 49°00' W 123°08'0 0.3
2019-Sep-17 19:30N 49°00' W 123°08'816.4
2019-Sep-17 19:01N 48°54' W 123°16'713.1
2019-Sep-17 18:30N 48°48' W 123°21'714.6
2019-Sep-17 18:00N 48°41' W 123°25'0 0.0
2019-Sep-17 17:30N 48°41' W 123°25'713.6
2019-Sep-17 17:00N 48°48' W 123°21'816.3
2019-Sep-17 16:30N 48°55' W 123°16'714.7
2019-Sep-17 16:00N 49°00' W 123°08'0 0.0
2019-Sep-17 15:30N 49°00' W 123°08'714.6
2019-Sep-17 15:00N 48°55' W 123°15'815.2
2019-Sep-17 14:30N 48°48' W 123°21'714.3
2019-Sep-17 14:00N 48°41' W 123°25'0 0.0
2019-Sep-17 13:30N 48°41' W 123°25'0 0.0
2019-Sep-17 12:58N 48°41' W 123°25'0 0.0
2019-Sep-17 12:28N 48°41' W 123°25'0 0.0
2019-Sep-17 11:55N 48°41' W 123°25'0 0.0
2019-Sep-17 11:28N 48°41' W 123°25'0 0.0
2019-Sep-17 10:58N 48°41' W 123°25'0 0.0
2019-Sep-17 10:28N 48°41' W 123°25'0 0.0
2019-Sep-17 09:58N 48°41' W 123°25'0 0.0
2019-Sep-17 09:28N 48°41' W 123°25'0 0.0
2019-Sep-17 08:55N 48°41' W 123°25'0 0.0
2019-Sep-17 08:28N 48°41' W 123°25'0 0.0
2019-Sep-17 07:58N 48°41' W 123°25'0 0.0
2019-Sep-17 07:28N 48°41' W 123°25'0 0.0
2019-Sep-17 06:58N 48°41' W 123°25'0 0.0
2019-Sep-17 06:28N 48°41' W 123°25'0 0.0
2019-Sep-17 05:58N 48°41' W 123°25'0 0.0
2019-Sep-17 05:28N 48°41' W 123°25'612.9
2019-Sep-17 05:00N 48°47' W 123°21'816.5
2019-Sep-17 04:30N 48°55' W 123°17'816.2
2019-Sep-17 04:01N 49°00' W 123°08'0 0.3
2019-Sep-17 03:31N 49°00' W 123°08'917.6
2019-Sep-17 03:01N 48°53' W 123°17'815.7
2019-Sep-17 02:31N 48°46' W 123°21'510.6
2019-Sep-17 02:01N 48°41' W 123°25'0 0.0
2019-Sep-17 01:30N 48°41' W 123°25'713.9
2019-Sep-17 01:01N 48°48' W 123°21'815.3
2019-Sep-17 00:30N 48°55' W 123°16'815.2
2019-Sep-17 00:01N 49°00' W 123°08'0 0.1
2019-Sep-16 23:31N 49°00' W 123°08'714.4
2019-Sep-16 23:01N 48°55' W 123°15'815.3
2019-Sep-16 22:30N 48°48' W 123°21'714.5
2019-Sep-16 22:00N 48°41' W 123°25'0 0.0
2019-Sep-16 21:31N 48°41' W 123°25'713.9
2019-Sep-16 21:01N 48°48' W 123°21'815.2
2019-Sep-16 20:31N 48°55' W 123°16'815.2
2019-Sep-16 20:00N 49°00' W 123°08'0 0.0
2019-Sep-16 19:30N 49°00' W 123°08'815.8
2019-Sep-16 19:00N 48°54' W 123°15'815.2
2019-Sep-16 18:30N 48°47' W 123°21'713.2
2019-Sep-16 18:00N 48°41' W 123°25'0 0.0
2019-Sep-16 17:31N 48°41' W 123°25'815.6
2019-Sep-16 17:00N 48°49' W 123°21'714.2
2019-Sep-16 16:30N 48°55' W 123°16'714.7
2019-Sep-16 16:00N 49°00' W 123°08'0 0.1
2019-Sep-16 15:30N 49°00' W 123°08'815.1
2019-Sep-16 15:01N 48°55' W 123°15'714.7
2019-Sep-16 14:31N 48°48' W 123°21'714.4
2019-Sep-16 14:00N 48°41' W 123°25'0 0.0
2019-Sep-16 13:29N 48°41' W 123°25'0 0.0
2019-Sep-16 12:59N 48°41' W 123°25'0 0.0
2019-Sep-16 12:29N 48°41' W 123°25'0 0.0
2019-Sep-16 11:59N 48°41' W 123°25'0 0.0
2019-Sep-16 11:29N 48°41' W 123°25'0 0.0
2019-Sep-16 10:56N 48°41' W 123°25'0 0.0
2019-Sep-16 10:29N 48°41' W 123°25'0 0.0
2019-Sep-16 09:59N 48°41' W 123°25'0 0.0
2019-Sep-16 09:29N 48°41' W 123°25'0 0.0
2019-Sep-16 08:59N 48°41' W 123°25'0 0.0
2019-Sep-16 08:29N 48°41' W 123°25'0 0.0
2019-Sep-16 07:59N 48°41' W 123°25'0 0.0
2019-Sep-16 07:29N 48°41' W 123°25'0 0.0
2019-Sep-16 06:59N 48°41' W 123°25'0 0.0
2019-Sep-16 06:29N 48°41' W 123°25'0 0.0
2019-Sep-16 05:59N 48°41' W 123°25'0 0.0
2019-Sep-16 05:29N 48°41' W 123°25'612.2
2019-Sep-16 05:00N 48°47' W 123°21'917.4
2019-Sep-16 04:30N 48°55' W 123°16'815.6
2019-Sep-16 04:00N 49°00' W 123°08'0 0.1
2019-Sep-16 03:30N 49°00' W 123°08'917.6
2019-Sep-16 03:00N 48°54' W 123°17'815.8
2019-Sep-16 02:30N 48°46' W 123°21'510.7
2019-Sep-16 02:00N 48°41' W 123°25'1 1.1
2019-Sep-16 01:30N 48°42' W 123°24'917.1
2019-Sep-16 01:00N 48°50' W 123°21'714.3
2019-Sep-16 00:31N 48°56' W 123°15'612.9
2019-Sep-16 00:00N 49°00' W 123°08'0 0.1
2019-Sep-15 23:30N 49°00' W 123°08'918.2
2019-Sep-15 23:00N 48°53' W 123°17'816.9
2019-Sep-15 22:31N 48°46' W 123°22'5 9.2
2019-Sep-15 22:00N 48°41' W 123°25'0 0.3
2019-Sep-15 21:30N 48°41' W 123°25'816.5
2019-Sep-15 21:00N 48°49' W 123°21'612.8
2019-Sep-15 20:30N 48°55' W 123°16'815.2
2019-Sep-15 20:00N 49°00' W 123°08'0 0.0
2019-Sep-15 19:30N 49°00' W 123°08'714.8
2019-Sep-15 19:00N 48°55' W 123°15'815.6
2019-Sep-15 18:30N 48°48' W 123°21'713.8
2019-Sep-15 18:00N 48°41' W 123°25'0 0.0
2019-Sep-15 17:31N 48°41' W 123°25'713.3
2019-Sep-15 17:01N 48°48' W 123°21'816.2
2019-Sep-15 16:31N 48°55' W 123°16'814.8
2019-Sep-15 16:00N 49°00' W 123°08'0 0.2
2019-Sep-15 15:30N 49°00' W 123°08'714.8
2019-Sep-15 15:00N 48°55' W 123°15'715.0
2019-Sep-15 14:30N 48°48' W 123°21'714.3
2019-Sep-15 14:00N 48°41' W 123°25'0 0.0
2019-Sep-15 13:30N 48°41' W 123°25'0 0.0
2019-Sep-15 13:00N 48°41' W 123°25'0 0.0
2019-Sep-15 12:30N 48°41' W 123°25'0 0.0
2019-Sep-15 11:57N 48°41' W 123°25'0 0.0
2019-Sep-15 11:27N 48°41' W 123°25'0 0.0
2019-Sep-15 10:57N 48°41' W 123°25'0 0.0
2019-Sep-15 10:21N 48°41' W 123°25'0 0.0
2019-Sep-15 09:57N 48°41' W 123°25'0 0.0
2019-Sep-15 09:27N 48°41' W 123°25'0 0.0
2019-Sep-15 08:57N 48°41' W 123°25'0 0.0
2019-Sep-15 08:27N 48°41' W 123°25'0 0.0
2019-Sep-15 07:57N 48°41' W 123°25'0 0.0
2019-Sep-15 07:27N 48°41' W 123°25'0 0.0
2019-Sep-15 06:57N 48°41' W 123°25'0 0.0
2019-Sep-15 06:27N 48°41' W 123°25'0 0.0
2019-Sep-15 05:57N 48°41' W 123°25'0 0.0
2019-Sep-15 05:30N 48°41' W 123°25'612.2
2019-Sep-15 05:00N 48°47' W 123°21'917.4
2019-Sep-15 04:30N 48°55' W 123°16'815.2
2019-Sep-15 04:00N 49°00' W 123°08'0 0.1
2019-Sep-15 03:30N 49°00' W 123°08'816.3
2019-Sep-15 03:00N 48°54' W 123°16'715.0
2019-Sep-15 02:30N 48°47' W 123°21'612.9
2019-Sep-15 02:00N 48°41' W 123°25'0 0.4
2019-Sep-15 01:30N 48°42' W 123°24'816.4
2019-Sep-15 01:00N 48°49' W 123°21'714.8
2019-Sep-15 00:30N 48°56' W 123°15'713.3
2019-Sep-15 00:00N 49°00' W 123°08'0 0.1
2019-Sep-14 23:30N 49°00' W 123°08'815.4
2019-Sep-14 23:00N 48°54' W 123°15'816.3
2019-Sep-14 22:31N 48°47' W 123°21'612.4
2019-Sep-14 22:00N 48°41' W 123°25'0 0.0
2019-Sep-14 21:30N 48°41' W 123°25'815.4
2019-Sep-14 21:00N 48°49' W 123°20'714.1
2019-Sep-14 20:30N 48°55' W 123°16'715.1
2019-Sep-14 20:01N 49°00' W 123°08'0 0.1
2019-Sep-14 19:30N 49°00' W 123°08'817.0
2019-Sep-14 19:00N 48°54' W 123°16'713.8
2019-Sep-14 18:30N 48°48' W 123°21'713.4
2019-Sep-14 18:00N 48°41' W 123°25'0 0.0
2019-Sep-14 17:30N 48°41' W 123°25'714.4
2019-Sep-14 17:00N 48°48' W 123°21'816.3
2019-Sep-14 16:30N 48°55' W 123°16'713.9
2019-Sep-14 16:00N 49°00' W 123°08'0 0.1
2019-Sep-14 15:30N 49°00' W 123°08'816.3
2019-Sep-14 15:01N 48°54' W 123°16'713.6
2019-Sep-14 14:31N 48°48' W 123°20'714.6
2019-Sep-14 14:00N 48°42' W 123°25'0 0.2
2019-Sep-14 13:28N 48°41' W 123°25'0 0.0
2019-Sep-14 12:58N 48°41' W 123°25'0 0.0
2019-Sep-14 12:28N 48°41' W 123°25'0 0.0
2019-Sep-14 11:58N 48°41' W 123°25'0 0.0
2019-Sep-14 11:28N 48°41' W 123°25'0 0.0
2019-Sep-14 10:58N 48°41' W 123°25'0 0.0
2019-Sep-14 10:28N 48°41' W 123°25'0 0.0
2019-Sep-14 09:58N 48°41' W 123°25'0 0.0
2019-Sep-14 09:28N 48°41' W 123°25'0 0.0
2019-Sep-14 08:55N 48°41' W 123°25'0 0.0
2019-Sep-14 08:28N 48°41' W 123°25'0 0.0
2019-Sep-14 07:58N 48°41' W 123°25'0 0.0
2019-Sep-14 07:28N 48°41' W 123°25'0 0.0
2019-Sep-14 06:55N 48°41' W 123°25'0 0.0
2019-Sep-14 06:25N 48°41' W 123°25'0 0.0
2019-Sep-14 05:55N 48°41' W 123°25'0 0.0
2019-Sep-14 05:29N 48°41' W 123°25'713.8
2019-Sep-14 05:00N 48°47' W 123°21'918.0
2019-Sep-14 04:30N 48°56' W 123°16'714.1
2019-Sep-14 04:00N 49°00' W 123°08'0 0.1
2019-Sep-14 03:30N 49°00' W 123°08'816.3
2019-Sep-14 03:01N 48°54' W 123°16'815.1
2019-Sep-14 02:31N 48°47' W 123°21'612.9
2019-Sep-14 02:00N 48°41' W 123°25'0 0.5
2019-Sep-14 01:30N 48°41' W 123°24'815.6
2019-Sep-14 01:00N 48°49' W 123°21'714.5
2019-Sep-14 00:31N 48°55' W 123°16'714.4
2019-Sep-14 00:00N 49°00' W 123°08'0 0.0
2019-Sep-13 23:31N 49°00' W 123°08'815.6
2019-Sep-13 23:00N 48°54' W 123°16'917.3
2019-Sep-13 22:30N 48°46' W 123°21'611.4
2019-Sep-13 22:00N 48°41' W 123°25'0 0.6
2019-Sep-13 21:30N 48°41' W 123°24'816.0
2019-Sep-13 21:00N 48°49' W 123°21'714.8
2019-Sep-13 20:31N 48°56' W 123°15'713.4
2019-Sep-13 20:00N 49°00' W 123°08'0 0.0
2019-Sep-13 19:30N 49°00' W 123°08'714.0
2019-Sep-13 19:00N 48°55' W 123°14'816.5
2019-Sep-13 18:30N 48°48' W 123°21'714.0
2019-Sep-13 18:00N 48°41' W 123°25'0 0.0
2019-Sep-13 17:30N 48°41' W 123°25'612.9
2019-Sep-13 17:00N 48°47' W 123°21'816.9
2019-Sep-13 16:30N 48°55' W 123°15'714.5
2019-Sep-13 16:00N 49°00' W 123°08'0 0.1
2019-Sep-13 15:30N 49°00' W 123°08'715.0
2019-Sep-13 15:01N 48°55' W 123°15'815.1
2019-Sep-13 14:30N 48°48' W 123°21'714.2
2019-Sep-13 14:00N 48°41' W 123°25'0 0.0
2019-Sep-13 13:30N 48°41' W 123°25'0 0.0
2019-Sep-13 12:59N 48°41' W 123°25'0 0.0
2019-Sep-13 12:29N 48°41' W 123°25'0 0.0
2019-Sep-13 11:59N 48°41' W 123°25'0 0.0
2019-Sep-13 11:29N 48°41' W 123°25'0 0.0
2019-Sep-13 10:59N 48°41' W 123°25'0 0.0
2019-Sep-13 10:29N 48°41' W 123°25'0 0.0
2019-Sep-13 09:59N 48°41' W 123°25'0 0.0
2019-Sep-13 09:29N 48°41' W 123°25'0 0.0
2019-Sep-13 08:59N 48°41' W 123°25'0 0.0
2019-Sep-13 08:26N 48°41' W 123°25'0 0.0
2019-Sep-13 07:59N 48°41' W 123°25'0 0.0
2019-Sep-13 07:29N 48°41' W 123°25'0 0.0
2019-Sep-13 06:59N 48°41' W 123°25'0 0.0
2019-Sep-13 06:29N 48°41' W 123°25'0 0.0
2019-Sep-13 05:59N 48°41' W 123°25'0 0.0
2019-Sep-13 05:30N 48°41' W 123°25'510.1
2019-Sep-13 05:00N 48°46' W 123°21'917.8
2019-Sep-13 04:30N 48°54' W 123°17'816.9
2019-Sep-13 04:00N 49°00' W 123°08'0 0.0
2019-Sep-13 03:30N 49°00' W 123°08'714.8
2019-Sep-13 03:00N 48°55' W 123°15'815.2
2019-Sep-13 02:30N 48°48' W 123°21'7 7.2
2019-Sep-13 01:30N 48°41' W 123°25'714.9
2019-Sep-13 01:01N 48°48' W 123°21'714.6
2019-Sep-13 00:31N 48°55' W 123°16'815.1
2019-Sep-13 00:00N 49°00' W 123°08'0 0.1
2019-Sep-12 23:30N 49°00' W 123°08'714.2
2019-Sep-12 23:00N 48°55' W 123°15'816.9
2019-Sep-12 22:30N 48°48' W 123°21'713.2
2019-Sep-12 22:00N 48°41' W 123°25'0 0.0
2019-Sep-12 21:30N 48°41' W 123°25'713.7
2019-Sep-12 21:01N 48°48' W 123°21'815.3
2019-Sep-12 20:30N 48°55' W 123°16'815.6
2019-Sep-12 20:00N 49°00' W 123°08'0 0.0
2019-Sep-12 19:30N 49°00' W 123°08'815.1
2019-Sep-12 19:00N 48°55' W 123°15'816.0
2019-Sep-12 18:31N 48°47' W 123°21'713.1
2019-Sep-12 18:00N 48°41' W 123°25'0 0.0
2019-Sep-12 17:30N 48°41' W 123°25'714.3
2019-Sep-12 17:00N 48°48' W 123°21'815.5
2019-Sep-12 16:30N 48°55' W 123°16'714.8
2019-Sep-12 16:00N 49°00' W 123°08'0 0.0
2019-Sep-12 15:30N 49°00' W 123°08'815.7
2019-Sep-12 15:01N 48°54' W 123°15'714.9
2019-Sep-12 14:31N 48°48' W 123°21'713.7
2019-Sep-12 14:00N 48°41' W 123°25'0 0.0
2019-Sep-12 13:30N 48°41' W 123°25'0 0.0
2019-Sep-12 13:00N 48°41' W 123°25'0 0.0
2019-Sep-12 12:30N 48°41' W 123°25'0 0.0
2019-Sep-12 11:58N 48°41' W 123°25'0 0.0
2019-Sep-12 11:28N 48°41' W 123°25'0 0.0
2019-Sep-12 10:58N 48°41' W 123°25'0 0.0
2019-Sep-12 10:28N 48°41' W 123°25'0 0.0
2019-Sep-12 09:58N 48°41' W 123°25'0 0.0
2019-Sep-12 09:28N 48°41' W 123°25'0 0.0
2019-Sep-12 08:58N 48°41' W 123°25'0 0.0
2019-Sep-12 08:28N 48°41' W 123°25'0 0.0
2019-Sep-12 07:58N 48°41' W 123°25'0 0.0
2019-Sep-12 07:28N 48°41' W 123°25'0 0.0
2019-Sep-12 06:58N 48°41' W 123°25'0 0.0
2019-Sep-12 06:28N 48°41' W 123°25'0 0.0
2019-Sep-12 05:58N 48°41' W 123°25'0 0.0
2019-Sep-12 05:28N 48°41' W 123°25'511.8
2019-Sep-12 05:01N 48°46' W 123°21'918.0
2019-Sep-12 04:30N 48°55' W 123°16'815.7
2019-Sep-12 04:00N 49°00' W 123°08'0 0.2
2019-Sep-12 03:30N 49°00' W 123°08'917.4
2019-Sep-12 03:00N 48°54' W 123°17'815.6
2019-Sep-12 02:31N 48°47' W 123°21'611.1
2019-Sep-12 02:00N 48°41' W 123°25'0 0.3
2019-Sep-12 01:31N 48°41' W 123°25'816.6
2019-Sep-12 01:01N 48°49' W 123°21'713.8
2019-Sep-12 00:31N 48°55' W 123°16'714.0
2019-Sep-12 00:00N 49°00' W 123°08'0 0.1
2019-Sep-11 23:30N 49°00' W 123°08'816.4
2019-Sep-11 23:00N 48°54' W 123°16'816.8
2019-Sep-11 22:30N 48°46' W 123°21'511.0
2019-Sep-11 22:00N 48°41' W 123°25'0 0.8
2019-Sep-11 21:31N 48°42' W 123°24'816.9
2019-Sep-11 21:01N 48°50' W 123°21'612.6
2019-Sep-11 20:31N 48°55' W 123°16'714.7
2019-Sep-11 20:00N 49°00' W 123°08'0 0.0
2019-Sep-11 19:30N 49°00' W 123°08'815.1
2019-Sep-11 19:00N 48°54' W 123°15'816.6
2019-Sep-11 18:30N 48°47' W 123°21'612.4
2019-Sep-11 18:00N 48°41' W 123°25'0 0.0
2019-Sep-11 17:31N 48°41' W 123°25'714.0
2019-Sep-11 17:00N 48°48' W 123°21'917.1
2019-Sep-11 16:30N 48°56' W 123°15'713.3
2019-Sep-11 16:00N 49°00' W 123°08'0 0.1
2019-Sep-11 15:30N 49°00' W 123°08'815.2
2019-Sep-11 15:00N 48°54' W 123°15'714.3
2019-Sep-11 14:30N 48°48' W 123°21'714.5
2019-Sep-11 14:00N 48°41' W 123°25'0 0.0
2019-Sep-11 13:30N 48°41' W 123°25'0 0.0
2019-Sep-11 13:00N 48°41' W 123°25'0 0.0
2019-Sep-11 12:30N 48°41' W 123°25'0 0.0
2019-Sep-11 12:00N 48°41' W 123°25'0 0.0
2019-Sep-11 11:29N 48°41' W 123°25'0 0.0
2019-Sep-11 10:59N 48°41' W 123°25'0 0.0
2019-Sep-11 10:29N 48°41' W 123°25'  
Track history (hours):
 
Tides and Currents Weather Stations Pressure Air Temp Water Temp Dewpoint Dewpoint Depression Visibility Wind Speed Wind Dir Waves Ship Positions

Spirit Of Vi

Last reported at 2019-Sep-21 10:27 UTC. Time now 2019-Sep-21 10:55 UTC.
Position N 48°41' W 123°25'.

Length 167 m; draft 4.8 m.

Type: Passenger vessel. MMSI: 316001269.

Date/timePositionNaut miles runAvg speedWind from/ knotsBaromVisibWave heightAir tempDewpointWater temp
2019-Sep-21 10:27N 48°41' W 123°25'0 0.0
2019-Sep-21 09:57N 48°41' W 123°25'0 0.0
2019-Sep-21 09:30N 48°41' W 123°25'0 0.0
2019-Sep-21 08:57N 48°41' W 123°25'0 0.0
2019-Sep-21 08:30N 48°41' W 123°25'0 0.0
2019-Sep-21 08:00N 48°41' W 123°25'0 0.0
2019-Sep-21 07:30N 48°41' W 123°25'0 0.0
2019-Sep-21 07:00N 48°41' W 123°25'0 0.0
2019-Sep-21 06:30N 48°41' W 123°25'0 0.0
2019-Sep-21 06:00N 48°41' W 123°25'0 0.0
2019-Sep-21 05:30N 48°41' W 123°25'612.6
2019-Sep-21 05:00N 48°47' W 123°21'815.6
2019-Sep-21 04:31N 48°54' W 123°17'816.8
2019-Sep-21 04:00N 49°00' W 123°08'0 0.3
2019-Sep-21 03:30N 49°00' W 123°08'815.9
2019-Sep-21 03:01N 48°54' W 123°16'713.2
2019-Sep-21 02:30N 48°48' W 123°20'714.5
2019-Sep-21 02:01N 48°42' W 123°25'0 0.3
2019-Sep-21 01:31N 48°41' W 123°25'815.6
2019-Sep-21 01:00N 48°49' W 123°21'713.8
2019-Sep-21 00:30N 48°55' W 123°16'815.3
2019-Sep-21 00:01N 49°00' W 123°08'0 0.1
2019-Sep-20 23:30N 49°00' W 123°08'918.0
2019-Sep-20 23:00N 48°53' W 123°17'815.5
2019-Sep-20 22:30N 48°46' W 123°21'510.9
2019-Sep-20 22:00N 48°41' W 123°25'1 2.1
2019-Sep-20 21:30N 48°42' W 123°23'918.7
2019-Sep-20 21:00N 48°51' W 123°21'713.6
2019-Sep-20 20:30N 48°56' W 123°14'612.2
2019-Sep-20 20:00N 49°00' W 123°08'0 0.5
2019-Sep-20 19:30N 49°00' W 123°08'918.6
2019-Sep-20 19:00N 48°53' W 123°17'713.8
2019-Sep-20 18:30N 48°47' W 123°21'611.5
2019-Sep-20 18:00N 48°41' W 123°25'0 0.0
2019-Sep-20 17:31N 48°41' W 123°25'714.9
2019-Sep-20 17:00N 48°48' W 123°21'815.9
2019-Sep-20 16:30N 48°55' W 123°15'712.5
2019-Sep-20 15:58N 49°00' W 123°08'0 0.1
2019-Sep-20 15:30N 49°00' W 123°08'714.7
2019-Sep-20 15:01N 48°55' W 123°15'815.5
2019-Sep-20 14:30N 48°48' W 123°21'713.9
2019-Sep-20 14:00N 48°41' W 123°25'0 0.0
2019-Sep-20 13:30N 48°41' W 123°25'0 0.0
2019-Sep-20 12:58N 48°41' W 123°25'0 0.0
2019-Sep-20 12:28N 48°41' W 123°25'0 0.0
2019-Sep-20 11:58N 48°41' W 123°25'0 0.0
2019-Sep-20 11:28N 48°41' W 123°25'0 0.0
2019-Sep-20 10:58N 48°41' W 123°25'0 0.0
2019-Sep-20 10:28N 48°41' W 123°25'0 0.0
2019-Sep-20 09:58N 48°41' W 123°25'0 0.0
2019-Sep-20 09:28N 48°41' W 123°25'0 0.0
2019-Sep-20 08:55N 48°41' W 123°25'0 0.0
2019-Sep-20 08:28N 48°41' W 123°25'0 0.0
2019-Sep-20 07:58N 48°41' W 123°25'0 0.0
2019-Sep-20 07:28N 48°41' W 123°25'0 0.0
2019-Sep-20 06:58N 48°41' W 123°25'0 0.0
2019-Sep-20 06:28N 48°41' W 123°25'0 0.0
2019-Sep-20 05:58N 48°41' W 123°25'0 0.0
2019-Sep-20 05:28N 48°41' W 123°25'612.2
2019-Sep-20 05:00N 48°46' W 123°21'816.4
2019-Sep-20 04:30N 48°54' W 123°17'917.2
2019-Sep-20 04:01N 49°00' W 123°08'0 0.1
2019-Sep-20 03:30N 49°00' W 123°08'815.9
2019-Sep-20 03:00N 48°54' W 123°16'713.5
2019-Sep-20 02:30N 48°48' W 123°20'714.4
2019-Sep-20 02:00N 48°41' W 123°25'0 0.0
2019-Sep-20 01:31N 48°41' W 123°25'714.8
2019-Sep-20 01:00N 48°48' W 123°21'815.2
2019-Sep-20 00:30N 48°55' W 123°16'714.7
2019-Sep-20 00:00N 49°00' W 123°08'0 0.1
2019-Sep-19 23:30N 49°00' W 123°08'715.1
2019-Sep-19 23:00N 48°55' W 123°15'714.7
2019-Sep-19 22:30N 48°48' W 123°20'714.4
2019-Sep-19 22:01N 48°41' W 123°25'0 0.1
2019-Sep-19 21:31N 48°41' W 123°25'613.0
2019-Sep-19 21:00N 48°47' W 123°21'816.3
2019-Sep-19 20:30N 48°55' W 123°16'815.1
2019-Sep-19 20:00N 49°00' W 123°08'0 0.1
2019-Sep-19 19:30N 49°00' W 123°08'817.0
2019-Sep-19 19:00N 48°54' W 123°16'815.0
2019-Sep-19 18:30N 48°47' W 123°21'612.1
2019-Sep-19 18:00N 48°41' W 123°25'0 0.3
2019-Sep-19 17:30N 48°41' W 123°25'815.4
2019-Sep-19 17:01N 48°49' W 123°21'714.6
2019-Sep-19 16:30N 48°55' W 123°16'714.6
2019-Sep-19 16:00N 49°00' W 123°08'0 0.1
2019-Sep-19 15:31N 49°00' W 123°08'714.5
2019-Sep-19 15:01N 48°55' W 123°15'816.5
2019-Sep-19 14:30N 48°47' W 123°21'713.1
2019-Sep-19 14:00N 48°41' W 123°25'0 0.0
2019-Sep-19 13:30N 48°41' W 123°25'0 0.0
2019-Sep-19 13:00N 48°41' W 123°25'0 0.0
2019-Sep-19 12:30N 48°41' W 123°25'0 0.0
2019-Sep-19 11:59N 48°41' W 123°25'0 0.0
2019-Sep-19 11:29N 48°41' W 123°25'0 0.0
2019-Sep-19 10:59N 48°41' W 123°25'0 0.0
2019-Sep-19 10:29N 48°41' W 123°25'0 0.0
2019-Sep-19 09:59N 48°41' W 123°25'0 0.0
2019-Sep-19 09:29N 48°41' W 123°25'0 0.0
2019-Sep-19 08:59N 48°41' W 123°25'0 0.0
2019-Sep-19 08:29N 48°41' W 123°25'0 0.0
2019-Sep-19 07:59N 48°41' W 123°25'0 0.0
2019-Sep-19 07:29N 48°41' W 123°25'0 0.0
2019-Sep-19 06:59N 48°41' W 123°25'0 0.0
2019-Sep-19 06:29N 48°41' W 123°25'0 0.0
2019-Sep-19 05:59N 48°41' W 123°25'0 0.0
2019-Sep-19 05:29N 48°41' W 123°25'612.0
2019-Sep-19 05:00N 48°46' W 123°21'815.8
2019-Sep-19 04:30N 48°54' W 123°17'917.4
2019-Sep-19 04:01N 49°00' W 123°08'0 0.1
2019-Sep-19 03:30N 49°00' W 123°08'815.2
2019-Sep-19 03:00N 48°54' W 123°15'714.2
2019-Sep-19 02:30N 48°48' W 123°21'714.6
2019-Sep-19 02:00N 48°41' W 123°25'0 0.0
2019-Sep-19 01:31N 48°41' W 123°25'815.2
2019-Sep-19 01:01N 48°49' W 123°21'714.5
2019-Sep-19 00:31N 48°55' W 123°16'714.9
2019-Sep-19 00:00N 49°00' W 123°08'0 0.0
2019-Sep-18 23:30N 49°00' W 123°08'714.2
2019-Sep-18 23:01N 48°55' W 123°15'816.1
2019-Sep-18 22:31N 48°48' W 123°20'713.9
2019-Sep-18 22:00N 48°41' W 123°25'0 0.0
2019-Sep-18 21:30N 48°41' W 123°25'612.9
2019-Sep-18 21:00N 48°47' W 123°21'815.9
2019-Sep-18 20:30N 48°55' W 123°16'815.5
2019-Sep-18 20:00N 49°00' W 123°08'0 0.1
2019-Sep-18 19:30N 49°00' W 123°08'815.6
2019-Sep-18 19:00N 48°54' W 123°15'815.1
2019-Sep-18 18:30N 48°48' W 123°21'713.5
2019-Sep-18 18:01N 48°41' W 123°25'0 0.0
2019-Sep-18 17:31N 48°41' W 123°25'713.9
2019-Sep-18 17:00N 48°48' W 123°21'815.6
2019-Sep-18 16:30N 48°55' W 123°16'714.9
2019-Sep-18 16:00N 49°00' W 123°08'0 0.1
2019-Sep-18 15:30N 49°00' W 123°08'714.6
2019-Sep-18 15:00N 48°55' W 123°15'816.6
2019-Sep-18 14:30N 48°47' W 123°21'613.0
2019-Sep-18 14:00N 48°41' W 123°25'0 0.0
2019-Sep-18 13:30N 48°41' W 123°25'0 0.0
2019-Sep-18 13:00N 48°41' W 123°25'0 0.0
2019-Sep-18 12:30N 48°41' W 123°25'0 0.0
2019-Sep-18 12:00N 48°41' W 123°25'0 0.0
2019-Sep-18 11:30N 48°41' W 123°25'0 0.0
2019-Sep-18 11:00N 48°41' W 123°25'0 0.0
2019-Sep-18 10:30N 48°41' W 123°25'0 0.0
2019-Sep-18 10:00N 48°41' W 123°25'0 0.0
2019-Sep-18 09:30N 48°41' W 123°25'0 0.0
2019-Sep-18 09:00N 48°41' W 123°25'0 0.0
2019-Sep-18 08:30N 48°41' W 123°25'0 0.0
2019-Sep-18 08:00N 48°41' W 123°25'0 0.0
2019-Sep-18 07:30N 48°41' W 123°25'0 0.0
2019-Sep-18 07:00N 48°41' W 123°25'0 0.0
2019-Sep-18 06:30N 48°41' W 123°25'0 0.0
2019-Sep-18 06:00N 48°41' W 123°25'0 0.0
2019-Sep-18 05:30N 48°41' W 123°25'611.3
2019-Sep-18 05:00N 48°46' W 123°21'817.0
2019-Sep-18 04:30N 48°54' W 123°17'816.9
2019-Sep-18 04:01N 49°00' W 123°08'0 0.1
2019-Sep-18 03:31N 49°00' W 123°08'714.9
2019-Sep-18 03:00N 48°55' W 123°15'815.3
2019-Sep-18 02:30N 48°48' W 123°21'714.0
2019-Sep-18 02:01N 48°41' W 123°25'0 0.5
2019-Sep-18 01:30N 48°41' W 123°24'816.4
2019-Sep-18 01:00N 48°49' W 123°21'713.7
2019-Sep-18 00:30N 48°55' W 123°16'714.3
2019-Sep-18 00:00N 49°00' W 123°08'0 0.1
2019-Sep-17 23:30N 49°00' W 123°08'816.9
2019-Sep-17 23:00N 48°54' W 123°16'612.1
2019-Sep-17 22:30N 48°49' W 123°21'815.2
2019-Sep-17 22:00N 48°41' W 123°25'0 0.0
2019-Sep-17 21:30N 48°41' W 123°25'713.6
2019-Sep-17 21:00N 48°48' W 123°21'816.3
2019-Sep-17 20:30N 48°55' W 123°16'714.6
2019-Sep-17 20:00N 49°00' W 123°08'0 0.3
2019-Sep-17 19:30N 49°00' W 123°08'816.4
2019-Sep-17 19:01N 48°54' W 123°16'713.1
2019-Sep-17 18:30N 48°48' W 123°21'714.6
2019-Sep-17 18:00N 48°41' W 123°25'0 0.0
2019-Sep-17 17:30N 48°41' W 123°25'713.6
2019-Sep-17 17:00N 48°48' W 123°21'816.3
2019-Sep-17 16:30N 48°55' W 123°16'714.7
2019-Sep-17 16:00N 49°00' W 123°08'0 0.0
2019-Sep-17 15:30N 49°00' W 123°08'714.6
2019-Sep-17 15:00N 48°55' W 123°15'815.2
2019-Sep-17 14:30N 48°48' W 123°21'714.3
2019-Sep-17 14:00N 48°41' W 123°25'0 0.0
2019-Sep-17 13:30N 48°41' W 123°25'0 0.0
2019-Sep-17 12:58N 48°41' W 123°25'0 0.0
2019-Sep-17 12:28N 48°41' W 123°25'0 0.0
2019-Sep-17 11:55N 48°41' W 123°25'0 0.0
2019-Sep-17 11:28N 48°41' W 123°25'0 0.0
2019-Sep-17 10:58N 48°41' W 123°25'0 0.0
2019-Sep-17 10:28N 48°41' W 123°25'0 0.0
2019-Sep-17 09:58N 48°41' W 123°25'0 0.0
2019-Sep-17 09:28N 48°41' W 123°25'0 0.0
2019-Sep-17 08:55N 48°41' W 123°25'0 0.0
2019-Sep-17 08:28N 48°41' W 123°25'0 0.0
2019-Sep-17 07:58N 48°41' W 123°25'0 0.0
2019-Sep-17 07:28N 48°41' W 123°25'0 0.0
2019-Sep-17 06:58N 48°41' W 123°25'0 0.0
2019-Sep-17 06:28N 48°41' W 123°25'0 0.0
2019-Sep-17 05:58N 48°41' W 123°25'0 0.0
2019-Sep-17 05:28N 48°41' W 123°25'612.9
2019-Sep-17 05:00N 48°47' W 123°21'816.5
2019-Sep-17 04:30N 48°55' W 123°17'816.2
2019-Sep-17 04:01N 49°00' W 123°08'0 0.3
2019-Sep-17 03:31N 49°00' W 123°08'917.6
2019-Sep-17 03:01N 48°53' W 123°17'815.7
2019-Sep-17 02:31N 48°46' W 123°21'510.6
2019-Sep-17 02:01N 48°41' W 123°25'0 0.0
2019-Sep-17 01:30N 48°41' W 123°25'713.9
2019-Sep-17 01:01N 48°48' W 123°21'815.3
2019-Sep-17 00:30N 48°55' W 123°16'815.2
2019-Sep-17 00:01N 49°00' W 123°08'0 0.1
2019-Sep-16 23:31N 49°00' W 123°08'714.4
2019-Sep-16 23:01N 48°55' W 123°15'815.3
2019-Sep-16 22:30N 48°48' W 123°21'714.5
2019-Sep-16 22:00N 48°41' W 123°25'0 0.0
2019-Sep-16 21:31N 48°41' W 123°25'713.9
2019-Sep-16 21:01N 48°48' W 123°21'815.2
2019-Sep-16 20:31N 48°55' W 123°16'815.2
2019-Sep-16 20:00N 49°00' W 123°08'0 0.0
2019-Sep-16 19:30N 49°00' W 123°08'815.8
2019-Sep-16 19:00N 48°54' W 123°15'815.2
2019-Sep-16 18:30N 48°47' W 123°21'713.2
2019-Sep-16 18:00N 48°41' W 123°25'0 0.0
2019-Sep-16 17:31N 48°41' W 123°25'815.6
2019-Sep-16 17:00N 48°49' W 123°21'714.2
2019-Sep-16 16:30N 48°55' W 123°16'714.7
2019-Sep-16 16:00N 49°00' W 123°08'0 0.1
2019-Sep-16 15:30N 49°00' W 123°08'815.1
2019-Sep-16 15:01N 48°55' W 123°15'714.7
2019-Sep-16 14:31N 48°48' W 123°21'714.4
2019-Sep-16 14:00N 48°41' W 123°25'0 0.0
2019-Sep-16 13:29N 48°41' W 123°25'0 0.0
2019-Sep-16 12:59N 48°41' W 123°25'0 0.0
2019-Sep-16 12:29N 48°41' W 123°25'0 0.0
2019-Sep-16 11:59N 48°41' W 123°25'0 0.0
2019-Sep-16 11:29N 48°41' W 123°25'0 0.0
2019-Sep-16 10:56N 48°41' W 123°25'0 0.0
2019-Sep-16 10:29N 48°41' W 123°25'0 0.0
2019-Sep-16 09:59N 48°41' W 123°25'0 0.0
2019-Sep-16 09:29N 48°41' W 123°25'0 0.0
2019-Sep-16 08:59N 48°41' W 123°25'0 0.0
2019-Sep-16 08:29N 48°41' W 123°25'0 0.0
2019-Sep-16 07:59N 48°41' W 123°25'0 0.0
2019-Sep-16 07:29N 48°41' W 123°25'0 0.0
2019-Sep-16 06:59N 48°41' W 123°25'0 0.0
2019-Sep-16 06:29N 48°41' W 123°25'0 0.0
2019-Sep-16 05:59N 48°41' W 123°25'0 0.0
2019-Sep-16 05:29N 48°41' W 123°25'612.2
2019-Sep-16 05:00N 48°47' W 123°21'917.4
2019-Sep-16 04:30N 48°55' W 123°16'815.6
2019-Sep-16 04:00N 49°00' W 123°08'0 0.1
2019-Sep-16 03:30N 49°00' W 123°08'917.6
2019-Sep-16 03:00N 48°54' W 123°17'815.8
2019-Sep-16 02:30N 48°46' W 123°21'510.7
2019-Sep-16 02:00N 48°41' W 123°25'1 1.1
2019-Sep-16 01:30N 48°42' W 123°24'917.1
2019-Sep-16 01:00N 48°50' W 123°21'714.3
2019-Sep-16 00:31N 48°56' W 123°15'612.9
2019-Sep-16 00:00N 49°00' W 123°08'0 0.1
2019-Sep-15 23:30N 49°00' W 123°08'918.2
2019-Sep-15 23:00N 48°53' W 123°17'816.9
2019-Sep-15 22:31N 48°46' W 123°22'5 9.2
2019-Sep-15 22:00N 48°41' W 123°25'0 0.3
2019-Sep-15 21:30N 48°41' W 123°25'816.5
2019-Sep-15 21:00N 48°49' W 123°21'612.8
2019-Sep-15 20:30N 48°55' W 123°16'815.2
2019-Sep-15 20:00N 49°00' W 123°08'0 0.0
2019-Sep-15 19:30N 49°00' W 123°08'714.8
2019-Sep-15 19:00N 48°55' W 123°15'815.6
2019-Sep-15 18:30N 48°48' W 123°21'713.8
2019-Sep-15 18:00N 48°41' W 123°25'0 0.0
2019-Sep-15 17:31N 48°41' W 123°25'713.3
2019-Sep-15 17:01N 48°48' W 123°21'816.2
2019-Sep-15 16:31N 48°55' W 123°16'814.8
2019-Sep-15 16:00N 49°00' W 123°08'0 0.2
2019-Sep-15 15:30N 49°00' W 123°08'714.8
2019-Sep-15 15:00N 48°55' W 123°15'715.0
2019-Sep-15 14:30N 48°48' W 123°21'714.3
2019-Sep-15 14:00N 48°41' W 123°25'0 0.0
2019-Sep-15 13:30N 48°41' W 123°25'0 0.0
2019-Sep-15 13:00N 48°41' W 123°25'0 0.0
2019-Sep-15 12:30N 48°41' W 123°25'0 0.0
2019-Sep-15 11:57N 48°41' W 123°25'0 0.0
2019-Sep-15 11:27N 48°41' W 123°25'0 0.0
2019-Sep-15 10:57N 48°41' W 123°25'0 0.0
2019-Sep-15 10:21N 48°41' W 123°25'0 0.0
2019-Sep-15 09:57N 48°41' W 123°25'0 0.0
2019-Sep-15 09:27N 48°41' W 123°25'0 0.0
2019-Sep-15 08:57N 48°41' W 123°25'0 0.0
2019-Sep-15 08:27N 48°41' W 123°25'0 0.0
2019-Sep-15 07:57N 48°41' W 123°25'0 0.0
2019-Sep-15 07:27N 48°41' W 123°25'0 0.0
2019-Sep-15 06:57N 48°41' W 123°25'0 0.0
2019-Sep-15 06:27N 48°41' W 123°25'0 0.0
2019-Sep-15 05:57N 48°41' W 123°25'0 0.0
2019-Sep-15 05:30N 48°41' W 123°25'612.2
2019-Sep-15 05:00N 48°47' W 123°21'917.4
2019-Sep-15 04:30N 48°55' W 123°16'815.2
2019-Sep-15 04:00N 49°00' W 123°08'0 0.1
2019-Sep-15 03:30N 49°00' W 123°08'816.3
2019-Sep-15 03:00N 48°54' W 123°16'715.0
2019-Sep-15 02:30N 48°47' W 123°21'612.9
2019-Sep-15 02:00N 48°41' W 123°25'0 0.4
2019-Sep-15 01:30N 48°42' W 123°24'816.4
2019-Sep-15 01:00N 48°49' W 123°21'714.8
2019-Sep-15 00:30N 48°56' W 123°15'713.3
2019-Sep-15 00:00N 49°00' W 123°08'0 0.1
2019-Sep-14 23:30N 49°00' W 123°08'815.4
2019-Sep-14 23:00N 48°54' W 123°15'816.3
2019-Sep-14 22:31N 48°47' W 123°21'612.4
2019-Sep-14 22:00N 48°41' W 123°25'0 0.0
2019-Sep-14 21:30N 48°41' W 123°25'815.4
2019-Sep-14 21:00N 48°49' W 123°20'714.1
2019-Sep-14 20:30N 48°55' W 123°16'715.1
2019-Sep-14 20:01N 49°00' W 123°08'0 0.1
2019-Sep-14 19:30N 49°00' W 123°08'817.0
2019-Sep-14 19:00N 48°54' W 123°16'713.8
2019-Sep-14 18:30N 48°48' W 123°21'713.4
2019-Sep-14 18:00N 48°41' W 123°25'0 0.0
2019-Sep-14 17:30N 48°41' W 123°25'714.4
2019-Sep-14 17:00N 48°48' W 123°21'816.3
2019-Sep-14 16:30N 48°55' W 123°16'713.9
2019-Sep-14 16:00N 49°00' W 123°08'0 0.1
2019-Sep-14 15:30N 49°00' W 123°08'816.3
2019-Sep-14 15:01N 48°54' W 123°16'713.6
2019-Sep-14 14:31N 48°48' W 123°20'714.6
2019-Sep-14 14:00N 48°42' W 123°25'0 0.2
2019-Sep-14 13:28N 48°41' W 123°25'0 0.0
2019-Sep-14 12:58N 48°41' W 123°25'0 0.0
2019-Sep-14 12:28N 48°41' W 123°25'0 0.0
2019-Sep-14 11:58N 48°41' W 123°25'0 0.0
2019-Sep-14 11:28N 48°41' W 123°25'0 0.0
2019-Sep-14 10:58N 48°41' W 123°25'0 0.0
2019-Sep-14 10:28N 48°41' W 123°25'0 0.0
2019-Sep-14 09:58N 48°41' W 123°25'0 0.0
2019-Sep-14 09:28N 48°41' W 123°25'0 0.0
2019-Sep-14 08:55N 48°41' W 123°25'0 0.0
2019-Sep-14 08:28N 48°41' W 123°25'0 0.0
2019-Sep-14 07:58N 48°41' W 123°25'0 0.0
2019-Sep-14 07:28N 48°41' W 123°25'0 0.0
2019-Sep-14 06:55N 48°41' W 123°25'0 0.0
2019-Sep-14 06:25N 48°41' W 123°25'0 0.0
2019-Sep-14 05:55N 48°41' W 123°25'0 0.0
2019-Sep-14 05:29N 48°41' W 123°25'713.8
2019-Sep-14 05:00N 48°47' W 123°21'918.0
2019-Sep-14 04:30N 48°56' W 123°16'714.1
2019-Sep-14 04:00N 49°00' W 123°08'0 0.1
2019-Sep-14 03:30N 49°00' W 123°08'816.3
2019-Sep-14 03:01N 48°54' W 123°16'815.1
2019-Sep-14 02:31N 48°47' W 123°21'612.9
2019-Sep-14 02:00N 48°41' W 123°25'0 0.5
2019-Sep-14 01:30N 48°41' W 123°24'815.6
2019-Sep-14 01:00N 48°49' W 123°21'714.5
2019-Sep-14 00:31N 48°55' W 123°16'714.4
2019-Sep-14 00:00N 49°00' W 123°08'0 0.0
2019-Sep-13 23:31N 49°00' W 123°08'815.6
2019-Sep-13 23:00N 48°54' W 123°16'917.3
2019-Sep-13 22:30N 48°46' W 123°21'611.4
2019-Sep-13 22:00N 48°41' W 123°25'0 0.6
2019-Sep-13 21:30N 48°41' W 123°24'816.0
2019-Sep-13 21:00N 48°49' W 123°21'714.8
2019-Sep-13 20:31N 48°56' W 123°15'713.4
2019-Sep-13 20:00N 49°00' W 123°08'0 0.0
2019-Sep-13 19:30N 49°00' W 123°08'714.0
2019-Sep-13 19:00N 48°55' W 123°14'816.5
2019-Sep-13 18:30N 48°48' W 123°21'714.0
2019-Sep-13 18:00N 48°41' W 123°25'0 0.0
2019-Sep-13 17:30N 48°41' W 123°25'612.9
2019-Sep-13 17:00N 48°47' W 123°21'816.9
2019-Sep-13 16:30N 48°55' W 123°15'714.5
2019-Sep-13 16:00N 49°00' W 123°08'0 0.1
2019-Sep-13 15:30N 49°00' W 123°08'715.0
2019-Sep-13 15:01N 48°55' W 123°15'815.1
2019-Sep-13 14:30N 48°48' W 123°21'714.2
2019-Sep-13 14:00N 48°41' W 123°25'0 0.0
2019-Sep-13 13:30N 48°41' W 123°25'0 0.0
2019-Sep-13 12:59N 48°41' W 123°25'0 0.0
2019-Sep-13 12:29N 48°41' W 123°25'0 0.0
2019-Sep-13 11:59N 48°41' W 123°25'0 0.0
2019-Sep-13 11:29N 48°41' W 123°25'0 0.0
2019-Sep-13 10:59N 48°41' W 123°25'0 0.0
2019-Sep-13 10:29N 48°41' W 123°25'0 0.0
2019-Sep-13 09:59N 48°41' W 123°25'0 0.0
2019-Sep-13 09:29N 48°41' W 123°25'0 0.0
2019-Sep-13 08:59N 48°41' W 123°25'0 0.0
2019-Sep-13 08:26N 48°41' W 123°25'0 0.0
2019-Sep-13 07:59N 48°41' W 123°25'0 0.0
2019-Sep-13 07:29N 48°41' W 123°25'0 0.0
2019-Sep-13 06:59N 48°41' W 123°25'0 0.0
2019-Sep-13 06:29N 48°41' W 123°25'0 0.0
2019-Sep-13 05:59N 48°41' W 123°25'0 0.0
2019-Sep-13 05:30N 48°41' W 123°25'510.1
2019-Sep-13 05:00N 48°46' W 123°21'917.8
2019-Sep-13 04:30N 48°54' W 123°17'816.9
2019-Sep-13 04:00N 49°00' W 123°08'0 0.0
2019-Sep-13 03:30N 49°00' W 123°08'714.8
2019-Sep-13 03:00N 48°55' W 123°15'815.2
2019-Sep-13 02:30N 48°48' W 123°21'7 7.2
2019-Sep-13 01:30N 48°41' W 123°25'714.9
2019-Sep-13 01:01N 48°48' W 123°21'714.6
2019-Sep-13 00:31N 48°55' W 123°16'815.1
2019-Sep-13 00:00N 49°00' W 123°08'0 0.1
2019-Sep-12 23:30N 49°00' W 123°08'714.2
2019-Sep-12 23:00N 48°55' W 123°15'816.9
2019-Sep-12 22:30N 48°48' W 123°21'713.2
2019-Sep-12 22:00N 48°41' W 123°25'0 0.0
2019-Sep-12 21:30N 48°41' W 123°25'713.7
2019-Sep-12 21:01N 48°48' W 123°21'815.3
2019-Sep-12 20:30N 48°55' W 123°16'815.6
2019-Sep-12 20:00N 49°00' W 123°08'0 0.0
2019-Sep-12 19:30N 49°00' W 123°08'815.1
2019-Sep-12 19:00N 48°55' W 123°15'816.0
2019-Sep-12 18:31N 48°47' W 123°21'713.1
2019-Sep-12 18:00N 48°41' W 123°25'0 0.0
2019-Sep-12 17:30N 48°41' W 123°25'714.3
2019-Sep-12 17:00N 48°48' W 123°21'815.5
2019-Sep-12 16:30N 48°55' W 123°16'714.8
2019-Sep-12 16:00N 49°00' W 123°08'0 0.0
2019-Sep-12 15:30N 49°00' W 123°08'815.7
2019-Sep-12 15:01N 48°54' W 123°15'714.9
2019-Sep-12 14:31N 48°48' W 123°21'713.7
2019-Sep-12 14:00N 48°41' W 123°25'0 0.0
2019-Sep-12 13:30N 48°41' W 123°25'0 0.0
2019-Sep-12 13:00N 48°41' W 123°25'0 0.0
2019-Sep-12 12:30N 48°41' W 123°25'0 0.0
2019-Sep-12 11:58N 48°41' W 123°25'0 0.0
2019-Sep-12 11:28N 48°41' W 123°25'0 0.0
2019-Sep-12 10:58N 48°41' W 123°25'0 0.0
2019-Sep-12 10:28N 48°41' W 123°25'0 0.0
2019-Sep-12 09:58N 48°41' W 123°25'0 0.0
2019-Sep-12 09:28N 48°41' W 123°25'0 0.0
2019-Sep-12 08:58N 48°41' W 123°25'0 0.0
2019-Sep-12 08:28N 48°41' W 123°25'0 0.0
2019-Sep-12 07:58N 48°41' W 123°25'0 0.0
2019-Sep-12 07:28N 48°41' W 123°25'0 0.0
2019-Sep-12 06:58N 48°41' W 123°25'0 0.0
2019-Sep-12 06:28N 48°41' W 123°25'0 0.0
2019-Sep-12 05:58N 48°41' W 123°25'0 0.0
2019-Sep-12 05:28N 48°41' W 123°25'511.8
2019-Sep-12 05:01N 48°46' W 123°21'918.0
2019-Sep-12 04:30N 48°55' W 123°16'815.7
2019-Sep-12 04:00N 49°00' W 123°08'0 0.2
2019-Sep-12 03:30N 49°00' W 123°08'917.4
2019-Sep-12 03:00N 48°54' W 123°17'815.6
2019-Sep-12 02:31N 48°47' W 123°21'611.1
2019-Sep-12 02:00N 48°41' W 123°25'0 0.3
2019-Sep-12 01:31N 48°41' W 123°25'816.6
2019-Sep-12 01:01N 48°49' W 123°21'713.8
2019-Sep-12 00:31N 48°55' W 123°16'714.0
2019-Sep-12 00:00N 49°00' W 123°08'0 0.1
2019-Sep-11 23:30N 49°00' W 123°08'816.4
2019-Sep-11 23:00N 48°54' W 123°16'816.8
2019-Sep-11 22:30N 48°46' W 123°21'511.0
2019-Sep-11 22:00N 48°41' W 123°25'0 0.8
2019-Sep-11 21:31N 48°42' W 123°24'816.9
2019-Sep-11 21:01N 48°50' W 123°21'612.6
2019-Sep-11 20:31N 48°55' W 123°16'714.7
2019-Sep-11 20:00N 49°00' W 123°08'0 0.0
2019-Sep-11 19:30N 49°00' W 123°08'815.1
2019-Sep-11 19:00N 48°54' W 123°15'816.6
2019-Sep-11 18:30N 48°47' W 123°21'612.4
2019-Sep-11 18:00N 48°41' W 123°25'0 0.0
2019-Sep-11 17:31N 48°41' W 123°25'714.0
2019-Sep-11 17:00N 48°48' W 123°21'917.1
2019-Sep-11 16:30N 48°56' W 123°15'713.3
2019-Sep-11 16:00N 49°00' W 123°08'0 0.1
2019-Sep-11 15:30N 49°00' W 123°08'815.2
2019-Sep-11 15:00N 48°54' W 123°15'714.3
2019-Sep-11 14:30N 48°48' W 123°21'714.5
2019-Sep-11 14:00N 48°41' W 123°25'0 0.0
2019-Sep-11 13:30N 48°41' W 123°25'0 0.0
2019-Sep-11 13:00N 48°41' W 123°25'0 0.0
2019-Sep-11 12:30N 48°41' W 123°25'0 0.0
2019-Sep-11 12:00N 48°41' W 123°25'0 0.0
2019-Sep-11 11:29N 48°41' W 123°25'0 0.0
2019-Sep-11 10:59N 48°41' W 123°25'0 0.0
2019-Sep-11 10:29N 48°41' W 123°25'  

Dump ship's entire track history